Time;durP1;ratioP1;P1;durP2;ratioP2;P2;SDS_P1;SDS_P2;PMS_P1;PMS_P2;Temp;Humidity;BMP_temperature;BMP_pressure;BME280_temperature;BME280_humidity;BME280_pressure;Samples;Min_cycle;Max_cycle;Signal;HPM_P1;HPM_P2
2022/06/16 00:00:46;;;;;;;4.03;3.45;;;;;;;17.66;64.64;101823.56;5012494;28;20496;-67
2022/06/16 00:03:12;;;;;;;6.18;3.28;;;;;;;17.64;64.44;101833.13;5011236;28;20034;-67
2022/06/16 00:05:40;;;;;;;4.22;3.72;;;;;;;17.61;64.55;101827.84;5008613;28;20037;-66
2022/06/16 00:08:07;;;;;;;5.63;3.50;;;;;;;17.56;65.83;101819.88;5009624;28;20478;-66
2022/06/16 00:10:33;;;;;;;5.95;4.13;;;;;;;17.50;65.12;101820.63;5008468;28;20029;-67
2022/06/16 00:12:58;;;;;;;7.80;4.13;;;;;;;17.43;64.95;101820.50;5010711;28;20037;-67
2022/06/16 00:15:27;;;;;;;4.25;3.63;;;;;;;17.40;65.05;101816.06;5009211;28;20017;-66
2022/06/16 00:17:53;;;;;;;6.20;4.03;;;;;;;17.39;66.36;101824.81;5008927;28;20480;-67
2022/06/16 00:20:19;;;;;;;5.40;3.97;;;;;;;17.37;64.90;101824.78;5010905;28;20025;-66
2022/06/16 00:22:44;;;;;;;6.28;3.78;;;;;;;17.35;65.05;101823.84;5010507;28;20017;-66
2022/06/16 00:25:10;;;;;;;6.80;3.60;;;;;;;17.34;64.31;101815.97;5010185;28;20033;-66
2022/06/16 00:27:36;;;;;;;5.53;3.95;;;;;;;17.31;64.99;101824.66;5009893;28;20030;-66
2022/06/16 00:30:02;;;;;;;7.53;4.07;;;;;;;17.28;65.16;101830.72;5008405;28;20025;-66
2022/06/16 00:32:28;;;;;;;6.10;4.00;;;;;;;17.25;64.95;101828.00;5010306;28;20053;-67
2022/06/16 00:34:53;;;;;;;5.13;3.60;;;;;;;17.22;65.22;101827.06;5009964;28;20030;-66
2022/06/16 00:37:19;;;;;;;4.68;3.90;;;;;;;17.19;64.67;101833.16;5011116;28;20033;-66
2022/06/16 00:39:44;;;;;;;5.97;3.97;;;;;;;17.14;64.92;101830.41;5010543;28;20045;-67
2022/06/16 00:42:15;;;;;;;6.40;4.03;;;;;;;17.12;64.97;101826.91;5009488;28;20061;-67
2022/06/16 00:44:44;;;;;;;;;;;;;;;17.10;65.33;101825.06;5009361;28;20021;-66
2022/06/16 00:47:10;;;;;;;6.95;4.13;;;;;;;17.06;65.36;101829.34;5011546;28;20277;-66
2022/06/16 00:49:40;;;;;;;4.80;4.30;;;;;;;17.00;65.77;101832.72;5007304;28;20014;-66
2022/06/16 00:52:26;;;;;;;7.38;4.30;;;;;;;16.96;65.61;101841.38;5008187;28;20029;-66
2022/06/16 00:54:59;;;;;;;7.07;4.35;;;;;;;16.92;66.63;101839.53;5012171;28;20029;-66
2022/06/16 00:57:36;;;;;;;8.35;4.35;;;;;;;16.89;65.51;101839.47;5013130;28;20516;-67
2022/06/16 01:00:09;;;;;;;8.85;4.70;;;;;;;16.83;65.90;101842.84;5007739;28;20389;-66
2022/06/16 01:02:34;;;;;;;6.32;4.25;;;;;;;16.78;66.49;101842.72;5007998;28;20709;-67
2022/06/16 01:05:00;;;;;;;5.43;4.35;;;;;;;16.76;66.25;101852.31;5008241;28;20022;-67
2022/06/16 01:07:40;;;;;;;5.97;4.38;;;;;;;16.69;66.67;101851.25;5010317;28;20454;-66
2022/06/16 01:10:07;;;;;;;6.63;4.05;;;;;;;16.64;66.71;101845.03;5009785;28;20064;-67
2022/06/16 01:15:46;;;;;;;5.85;4.72;;;;;;;16.54;66.65;101849.19;5010228;28;20044;-66
2022/06/16 01:18:20;;;;;;;5.22;4.63;;;;;;;16.50;66.87;101849.97;5009107;28;20026;-66
2022/06/16 01:20:53;;;;;;;4.43;4.00;;;;;;;16.46;67.48;101850.72;5014040;28;20026;-66
2022/06/16 01:23:46;;;;;;;7.50;4.90;;;;;;;16.44;67.61;101861.16;5011166;28;20038;-67
2022/06/16 01:26:20;;;;;;;10.60;5.13;;;;;;;16.40;66.91;101855.81;5010021;28;20120;-66
2022/06/16 01:29:25;;;;;;;6.03;4.47;;;;;;;16.32;68.32;101864.38;5008522;28;20445;-67
2022/06/16 01:32:17;;;;;;;7.47;5.07;;;;;;;16.30;67.28;101866.06;5008683;28;20026;-67
2022/06/16 01:35:17;;;;;;;5.70;4.85;;;;;;;16.30;67.68;101871.28;5009998;28;20010;-67
2022/06/16 01:37:51;;;;;;;6.53;4.50;;;;;;;16.28;67.44;101877.34;5008689;28;20120;-67
2022/06/16 01:40:40;;;;;;;6.85;4.78;;;;;;;16.23;68.39;101874.59;5010093;28;20028;-66
2022/06/16 01:43:17;;;;;;;5.32;4.82;;;;;;;16.23;68.23;101874.59;5009816;28;20029;-66
2022/06/16 01:46:06;;;;;;;7.85;5.10;;;;;;;16.18;68.51;101877.09;5007449;28;20576;-67
2022/06/16 01:48:34;;;;;;;5.40;4.30;;;;;;;16.13;68.48;101868.28;5008746;28;20480;-67
2022/06/16 01:51:07;;;;;;;6.13;4.57;;;;;;;16.11;68.01;101869.94;5012549;28;20559;-67
2022/06/16 01:53:39;;;;;;;5.43;4.60;;;;;;;16.07;67.97;101871.59;5013530;28;20022;-66
2022/06/16 01:56:31;;;;;;;4.95;4.45;;;;;;;16.01;68.43;101868.81;5010501;28;20021;-67
2022/06/16 01:59:04;;;;;;;5.65;4.90;;;;;;;15.96;68.28;101873.00;5012185;28;20041;-67
2022/06/16 02:01:37;;;;;;;6.07;4.70;;;;;;;15.89;69.25;101877.19;5013118;28;20071;-66
2022/06/16 02:04:07;;;;;;;8.60;4.80;;;;;;;15.87;69.86;101880.59;5012414;28;20089;-66
2022/06/16 02:06:41;;;;;;;7.22;5.10;;;;;;;15.79;70.47;101878.69;5015144;28;20029;-67
2022/06/16 02:09:12;;;;;;;5.70;4.82;;;;;;;15.75;70.47;101882.06;5010643;28;20459;-67
2022/06/16 02:11:38;;;;;;;5.57;4.13;;;;;;;15.69;70.74;101888.00;5011468;28;20049;-66
2022/06/16 02:14:28;;;;;;;4.90;4.22;;;;;;;15.60;71.10;101879.91;5013815;28;20018;-66
2022/06/16 02:16:54;;;;;;;8.45;4.70;;;;;;;15.54;71.38;101875.38;5014592;28;20026;-66
2022/06/16 02:19:23;;;;;;;7.60;4.57;;;;;;;15.46;71.60;101867.34;5011771;28;20437;-67
2022/06/16 02:21:51;;;;;;;7.53;4.55;;;;;;;15.43;71.38;101866.38;5011391;28;20026;-67
2022/06/16 02:24:19;;;;;;;7.00;4.82;;;;;;;15.41;70.36;101863.75;5012413;28;20049;-67
2022/06/16 02:26:45;;;;;;;8.40;5.18;;;;;;;15.40;71.23;101866.31;5012857;28;20104;-67
2022/06/16 02:29:30;;;;;;;5.50;4.63;;;;;;;15.35;72.19;101877.50;5011298;28;20032;-66
2022/06/16 02:32:23;;;;;;;7.53;4.78;;;;;;;15.30;72.94;101886.94;5008353;28;20429;-67
2022/06/16 02:35:06;;;;;;;6.13;4.97;;;;;;;15.20;72.85;101896.19;5009417;28;20056;-66
2022/06/16 02:37:55;;;;;;;6.93;5.38;;;;;;;15.10;73.73;101902.00;5012394;28;20013;-67
2022/06/16 02:40:40;;;;;;;9.77;4.72;;;;;;;14.98;74.27;101913.84;5010529;28;20080;-66
2022/06/16 02:43:47;;;;;;;5.97;5.20;;;;;;;14.92;74.95;101924.06;5008800;28;20034;-66
2022/06/16 02:46:27;;;;;;;7.30;5.25;;;;;;;14.86;75.33;101924.78;5011970;28;20515;-66
2022/06/16 02:49:22;;;;;;;5.70;5.25;;;;;;;14.80;75.77;101929.78;5011359;28;20030;-66
2022/06/16 02:52:33;;;;;;;5.57;5.10;;;;;;;14.72;76.59;101936.44;5012159;28;20042;-67
2022/06/16 02:55:05;;;;;;;6.50;5.30;;;;;;;14.68;76.87;101937.22;5016218;28;20548;-66
2022/06/16 02:57:41;;;;;;;7.10;5.90;;;;;;;14.64;77.57;101939.69;5010476;28;20437;-67
2022/06/16 03:00:14;;;;;;;8.63;5.95;;;;;;;14.58;77.65;101933.41;5010123;28;20761;-66
2022/06/16 03:02:41;;;;;;;7.68;6.18;;;;;;;14.50;78.60;101936.63;5011213;28;20072;-66
2022/06/16 03:05:07;;;;;;;7.03;6.45;;;;;;;14.41;78.78;101926.78;5011869;28;20033;-66
2022/06/16 03:07:35;;;;;;;8.75;6.38;;;;;;;14.35;79.41;101930.91;5013125;28;20366;-67
2022/06/16 03:10:02;;;;;;;9.35;6.75;;;;;;;14.30;79.88;101933.38;5009412;28;20022;-66
2022/06/16 03:12:27;;;;;;;8.73;6.32;;;;;;;14.24;80.27;101928.84;5011535;28;20025;-66
2022/06/16 03:14:53;;;;;;;8.27;6.65;;;;;;;14.21;80.57;101922.63;5010462;28;20056;-67
2022/06/16 03:17:19;;;;;;;7.68;6.90;;;;;;;14.16;80.92;101930.28;5007053;28;20038;-67
2022/06/16 03:19:45;;;;;;;7.55;6.82;;;;;;;14.13;80.09;101931.06;5009504;28;20619;-66
2022/06/16 03:22:11;;;;;;;7.43;6.80;;;;;;;14.07;81.00;101933.44;5010126;28;20022;-66
2022/06/16 03:24:36;;;;;;;7.90;7.15;;;;;;;13.99;81.57;101927.09;5010998;28;20392;-67
2022/06/16 03:27:02;;;;;;;8.20;6.63;;;;;;;13.93;81.65;101939.06;5008645;28;20029;-67
2022/06/16 03:29:28;;;;;;;8.73;5.97;;;;;;;13.89;81.93;101931.06;5007929;28;20442;-66
2022/06/16 03:31:53;;;;;;;8.13;6.18;;;;;;;13.87;81.59;101933.63;5009675;28;20048;-66
2022/06/16 03:34:18;;;;;;;6.80;5.93;;;;;;;13.86;81.64;101926.66;5009592;28;20026;-67
2022/06/16 03:36:44;;;;;;;7.28;6.38;;;;;;;13.85;81.95;101918.78;5009439;28;20049;-66
2022/06/16 03:39:09;;;;;;;7.93;6.70;;;;;;;13.78;82.13;101917.69;5010266;28;20053;-66
2022/06/16 03:41:34;;;;;;;7.00;6.30;;;;;;;13.72;83.14;101939.19;5007952;28;20060;-66
2022/06/16 03:44:00;;;;;;;8.23;6.28;;;;;;;13.67;82.99;101936.41;5008319;28;20500;-67
2022/06/16 03:46:26;;;;;;;8.45;6.53;;;;;;;13.64;82.93;101946.72;5010364;28;20022;-66
2022/06/16 03:48:51;;;;;;;7.75;6.63;;;;;;;13.65;83.49;101953.69;5009483;28;20076;-66
2022/06/16 03:51:18;;;;;;;8.05;6.18;;;;;;;13.64;83.68;101962.34;5010627;28;20037;-66
2022/06/16 03:53:44;;;;;;;12.60;6.95;;;;;;;13.67;83.34;101964.19;5011595;28;20018;-66
2022/06/16 03:56:11;;;;;;;9.82;6.45;;;;;;;13.64;83.66;101961.44;5011644;28;20022;-66
2022/06/16 03:58:36;;;;;;;8.38;7.32;;;;;;;13.62;84.09;101969.19;5012569;28;20053;-66
2022/06/16 04:01:01;;;;;;;7.93;7.05;;;;;;;13.58;84.14;101975.16;5011873;28;20109;-66
2022/06/16 04:06:12;;;;;;;7.15;6.45;;;;;;;13.60;83.31;101976.06;5009574;28;20117;-67
2022/06/16 04:08:38;;;;;;;7.65;6.10;;;;;;;13.63;82.76;101981.41;5012809;28;20032;-67
2022/06/16 04:11:26;;;;;;;9.02;6.30;;;;;;;13.65;82.52;101984.94;5008053;28;20048;-66
2022/06/16 04:13:49;;;;;;;7.65;6.28;;;;;;;13.62;82.70;101982.22;5008216;28;20038;-66
2022/06/16 04:16:15;;;;;;;9.15;6.68;;;;;;;13.64;82.40;101987.50;5011063;28;20025;-66
2022/06/16 04:18:40;;;;;;;8.80;6.50;;;;;;;13.65;83.72;101990.16;5011387;28;20057;-66
2022/06/16 04:21:05;;;;;;;8.85;7.15;;;;;;;13.67;83.32;101988.50;5007828;28;20030;-66
2022/06/16 04:23:31;;;;;;;9.57;7.68;;;;;;;13.71;83.51;101986.88;5007501;28;20137;-66
2022/06/16 04:25:56;;;;;;;8.05;7.22;;;;;;;13.74;83.42;101984.41;5006924;28;20040;-66
2022/06/16 04:28:21;;;;;;;10.75;8.73;;;;;;;13.76;83.00;101990.56;5007696;28;20028;-66
2022/06/16 04:30:47;;;;;;;12.23;8.20;;;;;;;13.77;82.52;101987.13;5010316;28;20021;-67
2022/06/16 04:33:13;;;;;;;9.10;8.23;;;;;;;13.79;82.30;101987.19;5007641;28;20079;-67
2022/06/16 04:35:38;;;;;;;8.88;7.43;;;;;;;13.85;81.77;102000.41;5007117;28;20040;-66
2022/06/16 04:38:05;;;;;;;10.18;7.60;;;;;;;13.88;80.92;102000.56;5016457;28;20064;-66
2022/06/16 04:40:31;;;;;;;8.55;7.03;;;;;;;13.92;81.23;102004.16;5023192;28;20034;-66
2022/06/16 04:42:56;;;;;;;8.48;6.53;;;;;;;13.93;80.63;102001.63;5014138;28;20036;-66
2022/06/16 04:45:22;;;;;;;6.93;6.35;;;;;;;13.96;80.74;102007.78;5011808;28;20455;-66
2022/06/16 04:47:48;;;;;;;7.35;5.82;;;;;;;13.97;79.72;102017.34;5008480;28;20088;-66
2022/06/16 04:50:18;;;;;;;11.15;6.60;;;;;;;13.98;80.02;102016.50;5011558;28;20457;-67
2022/06/16 04:52:45;;;;;;;12.20;7.07;;;;;;;14.01;80.10;102014.03;5015688;28;20018;-66
2022/06/16 04:55:11;;;;;;;7.85;5.65;;;;;;;14.04;79.94;102019.34;5007416;28;20029;-66
2022/06/16 04:57:36;;;;;;;9.05;6.60;;;;;;;14.11;80.14;102016.13;5007218;28;20017;-67
2022/06/16 05:00:04;;;;;;;8.23;6.30;;;;;;;14.18;79.54;102019.84;5007336;28;20404;-66
2022/06/16 05:02:29;;;;;;;8.18;6.18;;;;;;;14.25;80.45;102023.56;5006321;28;20026;-66
2022/06/16 05:04:55;;;;;;;7.55;6.22;;;;;;;14.34;79.16;102017.78;5006406;28;20014;-66
2022/06/16 05:07:20;;;;;;;9.02;5.97;;;;;;;14.40;78.73;102026.72;5006606;28;20076;-66
2022/06/16 05:09:45;;;;;;;10.80;6.07;;;;;;;14.46;78.26;102035.59;5005775;28;20056;-67
2022/06/16 05:12:11;;;;;;;6.45;5.75;;;;;;;14.53;77.60;102041.06;5008952;28;20596;-67
2022/06/16 05:14:36;;;;;;;10.65;5.95;;;;;;;14.60;76.98;102036.97;5012809;28;20071;-66
2022/06/16 05:17:01;;;;;;;7.65;5.40;;;;;;;14.65;74.45;102045.81;5008523;28;20025;-66
2022/06/16 05:19:30;;;;;;;10.95;5.90;;;;;;;14.76;75.41;102053.13;5007903;28;20045;-67
2022/06/16 05:21:56;;;;;;;8.55;4.78;;;;;;;14.84;75.52;102051.69;5007195;28;20018;-66
2022/06/16 05:24:22;;;;;;;8.70;5.20;;;;;;;14.91;73.38;102055.41;5008995;28;20127;-66
2022/06/16 05:26:47;;;;;;;9.95;5.18;;;;;;;15.02;73.22;102058.34;5010570;28;20038;-66
2022/06/16 05:29:12;;;;;;;10.10;5.22;;;;;;;15.12;73.10;102054.34;5019125;28;20072;-67
2022/06/16 05:31:38;;;;;;;5.70;4.80;;;;;;;15.22;72.22;102063.34;5011339;28;20017;-67
2022/06/16 05:34:03;;;;;;;6.35;4.80;;;;;;;15.29;70.91;102064.44;5013789;28;20465;-67
2022/06/16 05:36:29;;;;;;;5.72;5.13;;;;;;;15.37;69.73;102062.94;5010962;28;20020;-66
2022/06/16 05:38:54;;;;;;;6.35;5.05;;;;;;;15.46;70.94;102068.47;5025816;28;20026;-67
2022/06/16 05:41:19;;;;;;;5.78;4.20;;;;;;;15.55;70.50;102072.19;5029337;28;20037;-67
2022/06/16 05:43:44;;;;;;;5.88;4.70;;;;;;;15.63;69.39;102075.06;5028995;28;20031;-67
2022/06/16 05:46:19;;;;;;;5.82;3.97;;;;;;;15.72;68.23;102075.34;5027728;28;20112;-66
2022/06/16 05:48:45;;;;;;;5.95;4.43;;;;;;;15.83;68.28;102071.31;5013373;28;20450;-65
2022/06/16 05:51:14;;;;;;;6.13;3.70;;;;;;;15.89;67.06;102081.06;5018180;28;20041;-65
2022/06/16 05:53:40;;;;;;;6.75;4.15;;;;;;;15.95;66.70;102086.47;5008129;28;20045;-65
2022/06/16 05:56:06;;;;;;;4.43;3.72;;;;;;;16.05;66.50;102079.81;5008916;28;20037;-65
2022/06/16 05:58:31;;;;;;;7.20;3.78;;;;;;;16.15;66.81;102080.09;5016223;28;20026;-65
2022/06/16 06:00:57;;;;;;;5.35;3.90;;;;;;;16.22;65.57;102082.03;5013565;28;20032;-66
2022/06/16 06:03:22;;;;;;;5.78;3.60;;;;;;;16.32;64.65;102084.06;5009741;28;20033;-65
2022/06/16 06:05:48;;;;;;;4.80;4.00;;;;;;;16.46;63.57;102086.16;5009018;28;20026;-65
2022/06/16 06:16:35;;;;;;;4.40;3.15;;;;;;;16.94;60.22;102089.16;5008760;28;20042;-65
2022/06/16 06:22:02;;;;;;;4.20;3.08;;;;;;;17.20;57.78;102090.69;5009462;28;20044;-65
2022/06/16 06:24:32;;;;;;;4.07;2.90;;;;;;;17.32;58.58;102095.31;5008958;28;20054;-65
2022/06/16 06:27:00;;;;;;;8.48;3.55;;;;;;;17.44;58.47;102093.00;5009533;28;20053;-65
2022/06/16 06:29:26;;;;;;;3.53;2.63;;;;;;;17.58;57.91;102097.66;5009785;28;20033;-65
2022/06/16 06:31:51;;;;;;;3.50;2.63;;;;;;;17.74;56.83;102094.53;5009289;28;20064;-65
2022/06/16 06:34:16;;;;;;;3.45;2.75;;;;;;;17.88;55.26;102102.69;5010887;28;20026;-65
2022/06/16 06:36:42;;;;;;;4.28;2.42;;;;;;;17.96;55.38;102105.50;5016685;28;20169;-65
2022/06/16 06:39:08;;;;;;;4.97;2.70;;;;;;;18.06;53.01;102103.06;5026133;28;20221;-65
2022/06/16 06:41:33;;;;;;;3.80;2.40;;;;;;;18.06;52.14;102100.44;5028687;28;20112;-65
2022/06/16 06:43:59;;;;;;;3.63;2.00;;;;;;;18.13;53.06;102103.22;5028276;28;20596;-65
2022/06/16 06:46:25;;;;;;;3.08;2.13;;;;;;;18.25;52.44;102101.72;5028497;28;20037;-65
2022/06/16 06:48:50;;;;;;;6.25;2.50;;;;;;;18.19;50.54;102107.72;5028142;28;20425;-65
2022/06/16 06:51:15;;;;;;;6.20;2.47;;;;;;;18.30;51.54;102107.06;5028519;28;20568;-65
2022/06/16 06:53:41;;;;;;;4.00;2.00;;;;;;;18.41;50.90;102113.41;5028016;28;20466;-65
2022/06/16 06:56:06;;;;;;;3.85;2.35;;;;;;;18.50;50.10;102117.06;5027857;28;20029;-65
2022/06/16 06:58:33;;;;;;;4.10;2.20;;;;;;;18.61;51.87;102110.28;5027943;28;20037;-65
2022/06/16 07:01:01;;;;;;;5.05;2.33;;;;;;;18.76;51.66;102116.69;5028106;28;20445;-65
2022/06/16 07:03:29;;;;;;;4.40;2.40;;;;;;;18.93;51.46;102120.47;5027168;28;20021;-65
2022/06/16 07:05:54;;;;;;;6.43;2.70;;;;;;;19.10;51.61;102124.25;5022124;28;20466;-65
2022/06/16 07:08:20;;;;;;;6.45;3.03;;;;;;;19.19;52.26;102127.06;5023003;28;20033;-65
2022/06/16 07:10:46;;;;;;;5.68;2.67;;;;;;;19.30;51.44;102128.09;5016563;28;20105;-65
2022/06/16 07:13:11;;;;;;;7.90;2.65;;;;;;;19.42;50.39;102124.81;5028135;28;20100;-65
2022/06/16 07:15:37;;;;;;;4.75;1.85;;;;;;;19.49;49.53;102132.78;5027978;28;20017;-66
2022/06/16 07:18:05;;;;;;;4.20;2.05;;;;;;;19.60;50.32;102136.47;5026898;28;20025;-66
2022/06/16 07:20:31;;;;;;;3.03;1.80;;;;;;;19.70;50.14;102147.13;5027916;28;20404;-66
2022/06/16 07:22:57;;;;;;;3.33;1.85;;;;;;;19.80;48.35;102157.78;5027411;28;20025;-65
2022/06/16 07:25:22;;;;;;;5.47;1.80;;;;;;;19.85;48.13;102147.31;5024472;28;20025;-65
2022/06/16 07:27:47;;;;;;;5.90;1.90;;;;;;;19.98;48.79;102147.50;5028196;28;20091;-65
2022/06/16 07:30:16;;;;;;;4.25;2.33;;;;;;;20.04;47.08;102158.97;5025114;28;20035;-66
2022/06/16 07:32:43;;;;;;;4.72;1.65;;;;;;;20.06;46.59;102155.53;5027975;28;20436;-65
2022/06/16 07:35:09;;;;;;;1.52;1.42;;;;;;;20.19;47.68;102164.44;5027785;28;20128;-65
2022/06/16 07:37:35;;;;;;;6.32;2.30;;;;;;;20.35;48.34;102169.03;5026506;28;20029;-65
2022/06/16 07:40:01;;;;;;;5.82;2.17;;;;;;;20.43;48.76;102174.41;5028251;28;20120;-66
2022/06/16 07:42:27;;;;;;;4.40;2.17;;;;;;;20.57;48.38;102173.66;5027911;28;20108;-65
2022/06/16 07:44:52;;;;;;;5.35;2.10;;;;;;;20.64;47.10;102186.03;5027943;28;20040;-65
2022/06/16 07:47:17;;;;;;;2.38;1.60;;;;;;;20.76;47.33;102191.44;5026788;28;20029;-65
2022/06/16 07:49:43;;;;;;;3.67;1.70;;;;;;;20.90;46.41;102184.56;5027652;28;20037;-65
2022/06/16 07:52:09;;;;;;;2.10;1.45;;;;;;;21.00;46.84;102191.69;5026270;28;20488;-65
2022/06/16 07:54:34;;;;;;;12.40;2.70;;;;;;;21.07;45.34;102185.63;5027839;28;20100;-65
2022/06/16 07:56:59;;;;;;;3.00;1.48;;;;;;;21.20;43.59;102186.63;5027452;28;20112;-65
2022/06/16 07:59:25;;;;;;;2.72;1.75;;;;;;;21.28;44.22;102184.03;5027566;28;20492;-65
2022/06/16 08:01:50;;;;;;;3.17;1.40;;;;;;;21.46;44.92;102195.63;5027225;28;20029;-65
2022/06/16 08:04:15;;;;;;;2.70;1.55;;;;;;;21.60;44.97;102196.59;5027406;28;20018;-66
2022/06/16 08:06:41;;;;;;;5.38;1.08;;;;;;;21.80;45.25;102197.66;5027143;28;20465;-65
2022/06/16 08:09:08;;;;;;;3.72;1.20;;;;;;;22.03;43.87;102205.69;5027550;28;20108;-66
2022/06/16 08:14:17;;;;;;;3.15;1.40;;;;;;;22.35;44.12;102197.91;5027490;28;20056;-65
2022/06/16 08:16:44;;;;;;;2.15;1.27;;;;;;;22.49;43.80;102209.41;5026884;28;20484;-65
2022/06/16 08:19:09;;;;;;;3.55;1.23;;;;;;;22.49;40.80;102205.88;5027276;28;20148;-66
2022/06/16 08:21:35;;;;;;;4.35;1.30;;;;;;;22.58;40.70;102208.56;5026874;28;20029;-65
2022/06/16 08:24:00;;;;;;;4.93;1.75;;;;;;;22.45;41.29;102201.47;5026940;28;20072;-65
2022/06/16 08:26:26;;;;;;;4.53;1.65;;;;;;;22.52;41.11;102204.13;5026645;28;20079;-65
2022/06/16 08:28:53;;;;;;;3.28;1.50;;;;;;;22.71;43.55;102204.22;5025858;28;20025;-65
2022/06/16 08:31:21;;;;;;;3.20;1.40;;;;;;;22.96;42.75;102201.63;5027310;28;20428;-66
2022/06/16 08:33:48;;;;;;;1.90;1.10;;;;;;;23.15;42.29;102191.09;5027001;28;20028;-65
2022/06/16 08:36:13;;;;;;;3.25;1.88;;;;;;;23.31;40.42;102193.72;5026339;28;20032;-66
2022/06/16 08:38:39;;;;;;;2.42;1.38;;;;;;;23.26;39.57;102191.94;5025954;28;20417;-66
2022/06/16 08:41:12;;;;;;;3.40;1.45;;;;;;;23.29;40.74;102187.53;5026732;28;20103;-65
2022/06/16 08:43:49;;;;;;;4.25;1.50;;;;;;;23.44;40.88;102178.78;5026634;28;20017;-65
2022/06/16 08:46:17;;;;;;;5.30;1.65;;;;;;;23.55;39.23;102181.41;5026346;28;20026;-65
2022/06/16 08:49:01;;;;;;;3.75;1.63;;;;;;;23.55;41.50;102176.97;5026272;28;20026;-65
2022/06/16 08:52:03;;;;;;;4.07;1.85;;;;;;;23.45;39.49;102192.00;5025812;28;20452;-66
2022/06/16 08:54:48;;;;;;;3.53;1.83;;;;;;;23.33;39.10;102191.97;5025973;28;20029;-66
2022/06/16 08:57:38;;;;;;;4.18;2.15;;;;;;;23.25;38.85;102211.34;5027212;28;20056;-65
2022/06/16 09:00:15;;;;;;;3.97;2.22;;;;;;;23.34;40.43;102215.75;5030516;28;20026;-65
2022/06/16 09:02:52;;;;;;;4.22;1.98;;;;;;;23.36;39.45;102219.28;5030528;28;20033;-65
2022/06/16 09:05:33;;;;;;;6.07;2.00;;;;;;;23.49;39.50;102219.31;5030203;28;20029;-65
2022/06/16 09:08:25;;;;;;;5.15;1.75;;;;;;;23.71;40.45;102227.22;5029828;28;20377;-66
2022/06/16 09:11:22;;;;;;;6.50;2.40;;;;;;;23.88;40.50;102227.19;5030336;28;20111;-66
2022/06/16 09:14:16;;;;;;;6.88;2.22;;;;;;;23.87;39.00;102230.72;5030525;28;20026;-65
2022/06/16 09:16:58;;;;;;;5.88;2.28;;;;;;;23.93;39.38;102235.09;5029538;28;20028;-66
2022/06/16 09:19:45;;;;;;;3.47;1.80;;;;;;;24.04;39.71;102238.63;5030295;28;20025;-65
2022/06/16 09:22:40;;;;;;;3.15;1.95;;;;;;;24.21;41.30;102241.22;5029284;28;20056;-66
2022/06/16 09:25:11;;;;;;;4.13;1.65;;;;;;;24.26;39.74;102238.59;5012245;28;20038;-65
2022/06/16 09:27:41;;;;;;;10.95;1.85;;;;;;;24.31;41.12;102238.56;5021835;28;20640;-66
2022/06/16 09:30:12;;;;;;;3.83;1.80;;;;;;;24.37;38.95;102237.66;5029230;28;20366;-65
2022/06/16 09:32:40;;;;;;;4.82;2.13;;;;;;;24.30;38.73;102244.75;5028812;28;20334;-66
2022/06/16 09:35:34;;;;;;;5.80;2.13;;;;;;;24.31;40.20;102241.19;5029884;28;20120;-65
2022/06/16 09:38:39;;;;;;;3.78;1.80;;;;;;;24.46;41.90;102235.88;5028401;28;20037;-66
2022/06/16 09:44:12;;;;;;;5.38;2.05;;;;;;;24.43;40.15;102246.44;5026377;28;20087;-65
2022/06/16 09:46:45;;;;;;;5.03;2.10;;;;;;;24.45;39.42;102233.19;5019413;28;20033;-66
2022/06/16 09:49:34;;;;;;;4.20;2.08;;;;;;;24.54;39.52;102237.56;5029203;28;20032;-66
2022/06/16 09:52:09;;;;;;;4.28;2.30;;;;;;;24.42;39.09;102239.41;5028717;28;20094;-65
2022/06/16 09:54:46;;;;;;;6.03;2.47;;;;;;;24.47;39.20;102236.72;5028330;28;20013;-66
2022/06/16 09:57:17;;;;;;;5.82;1.75;;;;;;;24.63;40.22;102241.97;5029100;28;20067;-66
2022/06/16 09:59:59;;;;;;;4.32;2.22;;;;;;;24.63;39.67;102237.53;5028742;28;20021;-66
2022/06/16 10:02:30;;;;;;;5.03;2.33;;;;;;;24.41;38.21;102242.91;5029309;28;20040;-66
2022/06/16 10:04:55;;;;;;;4.40;2.10;;;;;;;24.48;38.68;102232.31;5016185;28;20037;-66
2022/06/16 10:07:42;;;;;;;2.50;1.52;;;;;;;24.68;41.79;102235.72;5028836;28;20462;-66
2022/06/16 10:10:16;;;;;;;2.33;1.85;;;;;;;24.88;39.99;102244.47;5028233;28;20115;-66
2022/06/16 10:12:48;;;;;;;3.70;1.88;;;;;;;25.06;38.85;102241.72;5028888;28;20026;-66
2022/06/16 10:15:21;;;;;;;4.88;2.03;;;;;;;25.13;38.28;102231.94;5028906;28;20025;-66
2022/06/16 10:17:48;;;;;;;3.53;2.08;;;;;;;25.11;39.15;102233.75;5028247;28;20112;-66
2022/06/16 10:20:16;;;;;;;8.18;2.50;;;;;;;25.03;38.92;102224.94;5016131;28;20058;-66
2022/06/16 10:22:48;;;;;;;5.10;2.22;;;;;;;25.01;38.54;102234.69;5011993;28;20113;-66
2022/06/16 10:25:16;;;;;;;5.35;2.00;;;;;;;25.11;38.70;102238.16;5009389;28;20026;-66
2022/06/16 10:27:46;;;;;;;3.88;2.50;;;;;;;25.13;38.30;102234.59;5016078;28;20024;-66
2022/06/16 10:30:27;;;;;;;7.57;2.20;;;;;;;25.01;37.92;102232.03;5011025;28;20389;-66
2022/06/16 10:33:14;;;;;;;3.67;2.20;;;;;;;25.05;39.61;102239.97;5013272;28;20021;-66
2022/06/16 10:35:49;;;;;;;3.83;2.20;;;;;;;24.95;37.38;102248.88;5012405;28;20070;-66
2022/06/16 10:38:20;;;;;;;5.47;2.47;;;;;;;25.00;38.69;102256.78;5014347;28;20065;-66
2022/06/16 10:40:46;;;;;;;4.68;2.42;;;;;;;25.11;39.20;102249.66;5012068;28;20059;-66
2022/06/16 10:43:17;;;;;;;6.55;2.10;;;;;;;25.09;38.82;102254.09;5011416;28;20059;-65
2022/06/16 10:45:54;;;;;;;4.25;1.98;;;;;;;25.12;37.96;102251.41;5011423;28;20065;-65
2022/06/16 10:48:32;;;;;;;5.30;2.25;;;;;;;25.18;39.00;102246.03;5011185;28;20065;-65
2022/06/16 10:51:09;;;;;;;2.88;1.83;;;;;;;25.30;39.64;102255.69;5011199;28;20026;-64
2022/06/16 10:53:40;;;;;;;6.50;2.03;;;;;;;25.47;40.45;102261.75;5012735;28;20116;-65
2022/06/16 10:56:19;;;;;;;2.38;1.92;;;;;;;25.27;36.66;102254.84;5009870;28;20020;-65
2022/06/16 10:58:47;;;;;;;4.75;2.63;;;;;;;25.13;37.43;102247.84;5009433;28;20394;-64
2022/06/16 11:01:16;;;;;;;4.90;2.00;;;;;;;25.14;39.18;102249.63;5011344;28;20025;-63
2022/06/16 11:03:50;;;;;;;5.68;2.20;;;;;;;25.25;40.14;102252.19;5011847;28;20344;-65
2022/06/16 11:06:19;;;;;;;4.95;2.28;;;;;;;25.38;39.08;102247.66;5010718;28;20034;-64
2022/06/16 11:09:00;;;;;;;4.25;1.92;;;;;;;25.58;42.16;102230.69;5015169;28;20040;-66
2022/06/16 11:11:52;;;;;;;4.55;2.00;;;;;;;25.65;37.97;102240.38;5012257;28;20207;-65
2022/06/16 11:14:42;;;;;;;3.55;2.33;;;;;;;25.42;37.30;102244.09;5009920;28;20280;-64
2022/06/16 11:17:11;;;;;;;5.70;2.10;;;;;;;25.20;37.58;102237.22;5014299;28;20164;-64
2022/06/16 11:19:43;;;;;;;8.38;2.90;;;;;;;25.23;38.30;102237.19;5009207;28;20025;-65
2022/06/16 11:22:32;;;;;;;4.57;2.65;;;;;;;25.26;38.86;102232.72;5010901;28;20037;-65
2022/06/16 11:25:05;;;;;;;4.35;2.20;;;;;;;25.24;38.87;102228.34;5010665;28;20145;-64
2022/06/16 11:27:40;;;;;;;6.68;2.20;;;;;;;25.28;38.01;102236.25;5013492;28;20037;-64
2022/06/16 11:30:38;;;;;;;8.73;2.60;;;;;;;25.08;37.68;102233.75;5010159;28;20125;-64
2022/06/16 11:33:05;;;;;;;3.58;1.98;;;;;;;25.42;41.93;102224.63;5010825;28;20021;-64
2022/06/16 11:35:53;;;;;;;2.85;2.10;;;;;;;25.71;40.92;102233.25;5010890;28;20029;-64
2022/06/16 11:38:56;;;;;;;3.30;1.88;;;;;;;26.06;42.39;102229.34;5014926;28;20501;-65
2022/06/16 11:41:25;;;;;;;4.75;2.20;;;;;;;26.24;40.02;102230.91;5011498;28;20036;-64
2022/06/16 11:44:12;;;;;;;8.88;2.85;;;;;;;26.38;39.94;102233.41;5010343;28;20030;-64
2022/06/16 11:47:04;;;;;;;5.88;2.38;;;;;;;26.34;38.46;102228.13;5009168;28;20553;-65
2022/06/16 11:49:38;;;;;;;4.85;2.50;;;;;;;26.22;37.43;102227.41;5009642;28;20036;-64
2022/06/16 11:52:13;;;;;;;6.43;2.08;;;;;;;26.23;38.63;102230.91;5008673;28;20359;-65
2022/06/16 11:55:00;;;;;;;4.78;1.88;;;;;;;26.37;40.44;102239.63;5020276;28;20033;-65
2022/06/16 11:57:41;;;;;;;4.85;2.55;;;;;;;26.37;37.96;102234.31;5009062;28;20478;-65
2022/06/16 12:00:30;;;;;;;3.88;2.28;;;;;;;26.17;37.13;102231.88;5008552;28;20029;-65
2022/06/16 12:03:12;;;;;;;6.13;2.20;;;;;;;26.05;37.48;102229.38;5008915;28;20049;-65
2022/06/16 12:05:47;;;;;;;3.72;2.15;;;;;;;26.07;37.36;102235.53;5008694;28;20061;-65
2022/06/16 12:08:28;;;;;;;6.20;2.55;;;;;;;26.08;38.48;102238.19;5008890;28;20042;-64